createdAt,value
2022-11-15T00:02:45.755Z,8.43
2022-11-15T00:05:37.107Z,7.70
2022-11-15T00:08:31.582Z,8.57
2022-11-15T00:11:22.013Z,8.57
2022-11-15T00:14:13.131Z,7.75
2022-11-15T00:17:03.608Z,8.35
2022-11-15T00:19:53.940Z,8.05
2022-11-15T00:22:44.326Z,8.40
2022-11-15T00:25:35.052Z,8.00
2022-11-15T00:28:26.801Z,8.35
2022-11-15T00:31:17.409Z,7.40
2022-11-15T00:34:07.877Z,7.70
2022-11-15T00:36:58.412Z,7.80
2022-11-15T00:39:48.836Z,7.22
2022-11-15T00:42:39.401Z,8.02
2022-11-15T00:45:30.139Z,7.07
2022-11-15T00:48:20.624Z,7.78
2022-11-15T00:51:10.896Z,7.25
2022-11-15T00:54:02.109Z,7.78
2022-11-15T00:56:52.459Z,8.05
2022-11-15T00:59:42.838Z,7.90
2022-11-15T01:02:33.285Z,7.13
2022-11-15T01:05:23.930Z,8.07
2022-11-15T01:08:16.561Z,7.93
2022-11-15T01:11:12.886Z,8.70
2022-11-15T01:14:03.636Z,8.55
2022-11-15T01:17:00.104Z,8.18
2022-11-15T01:19:50.517Z,8.05
2022-11-15T01:22:40.799Z,8.30
2022-11-15T01:25:31.194Z,8.63
2022-11-15T01:28:21.707Z,7.72
2022-11-15T01:31:17.868Z,7.45
2022-11-15T01:34:08.311Z,7.82
2022-11-15T01:36:58.784Z,7.80
2022-11-15T01:39:49.242Z,7.55
2022-11-15T01:42:39.667Z,6.68
2022-11-15T01:45:30.069Z,6.82
2022-11-15T01:48:21.407Z,7.07
2022-11-15T01:51:18.707Z,6.60
2022-11-15T01:54:14.994Z,7.32
2022-11-15T01:57:10.639Z,7.35
2022-11-15T02:00:02.589Z,6.97
2022-11-15T02:02:53.563Z,7.60
2022-11-15T02:05:45.157Z,6.65
2022-11-15T02:08:36.027Z,5.72
2022-11-15T02:11:27.173Z,6.03
2022-11-15T02:14:22.127Z,7.10
2022-11-15T02:17:38.156Z,6.57
2022-11-15T02:20:48.121Z,7.13
2022-11-15T02:23:57.397Z,5.80
2022-11-15T02:27:06.817Z,5.97
2022-11-15T02:30:20.991Z,5.25
2022-11-15T02:33:28.065Z,5.68
2022-11-15T02:37:05.835Z,5.47
2022-11-15T02:40:08.264Z,5.53
2022-11-15T02:43:30.849Z,4.65
2022-11-15T02:46:55.946Z,5.10
2022-11-15T02:52:41.994Z,5.03
2022-11-15T02:55:42.167Z,5.38
2022-11-15T02:59:08.544Z,5.35
2022-11-15T03:02:21.069Z,5.97
2022-11-15T03:05:30.124Z,5.60
2022-11-15T03:08:33.664Z,5.70
2022-11-15T03:11:25.365Z,6.22
2022-11-15T03:14:30.740Z,6.18
2022-11-15T03:17:53.012Z,6.28
2022-11-15T03:20:44.706Z,5.85
2022-11-15T03:23:37.610Z,6.05
2022-11-15T03:26:29.508Z,6.03
2022-11-15T03:29:25.837Z,6.47
2022-11-15T03:32:25.155Z,5.45
2022-11-15T03:35:22.930Z,6.65
2022-11-15T03:38:27.982Z,5.38
2022-11-15T03:41:30.028Z,6.03
2022-11-15T03:44:40.532Z,5.13
2022-11-15T03:47:54.744Z,5.82
2022-11-15T03:50:47.082Z,4.40
2022-11-15T03:53:37.968Z,5.15
2022-11-15T03:56:28.414Z,4.25
2022-11-15T03:59:19.622Z,4.57
2022-11-15T04:02:10.022Z,4.55
2022-11-15T04:05:00.532Z,4.78
2022-11-15T04:07:51.323Z,4.43
2022-11-15T04:10:42.387Z,5.05
2022-11-15T04:13:33.424Z,4.13
2022-11-15T04:16:24.561Z,4.82
2022-11-15T04:19:34.078Z,4.32
2022-11-15T04:22:43.678Z,4.53
2022-11-15T04:25:34.225Z,5.03
2022-11-15T04:28:24.949Z,4.43
2022-11-15T04:31:15.540Z,4.20
2022-11-15T04:34:05.985Z,4.68
2022-11-15T04:37:14.879Z,4.63
2022-11-15T04:40:05.912Z,4.55
2022-11-15T04:43:03.279Z,3.85
2022-11-15T04:45:54.692Z,4.30
2022-11-15T04:48:47.013Z,4.28
2022-11-15T04:51:37.946Z,4.13
2022-11-15T04:54:28.578Z,3.80
2022-11-15T04:57:19.610Z,4.90
2022-11-15T05:00:13.910Z,4.00
2022-11-15T05:06:13.727Z,4.25
2022-11-15T05:09:04.756Z,3.97
2022-11-15T05:11:55.299Z,4.50
2022-11-15T05:14:45.840Z,4.85
2022-11-15T05:17:36.415Z,6.55
2022-11-15T05:20:26.999Z,6.13
2022-11-15T05:23:17.669Z,5.35
2022-11-15T05:26:10.353Z,6.90
2022-11-15T05:29:00.795Z,8.80
2022-11-15T05:31:51.254Z,8.52
2022-11-15T05:34:41.957Z,9.07
2022-11-15T05:37:32.373Z,8.85
2022-11-15T05:40:22.976Z,7.60
2022-11-15T05:43:13.884Z,5.20
2022-11-15T05:46:05.479Z,4.80
2022-11-15T05:48:57.567Z,5.45
2022-11-15T05:51:49.370Z,5.32
2022-11-15T05:54:40.744Z,4.90
2022-11-15T05:57:31.616Z,6.28
2022-11-15T06:00:22.187Z,5.40
2022-11-15T06:03:12.751Z,5.60
2022-11-15T06:06:03.347Z,5.20
2022-11-15T06:08:53.734Z,5.88
2022-11-15T06:11:44.227Z,5.30
2022-11-15T06:14:34.618Z,4.97
2022-11-15T06:17:25.011Z,5.88
2022-11-15T06:20:15.620Z,6.28
2022-11-15T06:23:06.346Z,6.07
2022-11-15T06:25:59.253Z,4.80
2022-11-15T06:28:50.299Z,5.15
2022-11-15T06:31:41.643Z,5.45
2022-11-15T06:34:32.804Z,5.30
2022-11-15T06:37:23.521Z,5.85
2022-11-15T06:40:14.682Z,5.60
2022-11-15T06:43:05.951Z,6.32
2022-11-15T06:45:56.800Z,5.20
2022-11-15T06:48:47.644Z,5.25
2022-11-15T06:51:38.601Z,5.10
2022-11-15T06:54:29.134Z,5.28
2022-11-15T06:57:20.065Z,6.22
2022-11-15T07:00:11.244Z,5.18
2022-11-15T07:03:02.176Z,5.53
2022-11-15T07:05:54.835Z,4.88
2022-11-15T07:08:46.774Z,5.57
2022-11-15T07:11:37.406Z,6.60
2022-11-15T07:14:27.702Z,4.90
2022-11-15T07:17:18.529Z,5.50
2022-11-15T07:20:09.280Z,4.97
2022-11-15T07:23:04.679Z,5.97
2022-11-15T07:25:54.939Z,5.18
2022-11-15T07:28:45.297Z,6.53
2022-11-15T07:31:35.822Z,6.03
2022-11-15T07:34:26.467Z,5.70
2022-11-15T07:37:18.001Z,5.38
2022-11-15T07:40:09.473Z,7.05
2022-11-15T07:43:04.184Z,5.53
2022-11-15T07:45:59.121Z,6.63
2022-11-15T07:48:50.573Z,6.20
2022-11-15T07:51:40.840Z,6.90
2022-11-15T07:54:31.613Z,7.03
2022-11-15T07:57:22.296Z,6.47
2022-11-15T08:00:13.498Z,6.80
2022-11-15T08:03:10.093Z,6.25
2022-11-15T08:06:01.159Z,6.53
2022-11-15T08:08:51.727Z,7.03
2022-11-15T08:11:42.164Z,6.28
2022-11-15T08:14:33.126Z,6.07
2022-11-15T08:17:25.206Z,6.20
2022-11-15T08:20:16.340Z,6.03
2022-11-15T08:23:08.648Z,5.75
2022-11-15T08:26:05.991Z,5.47
2022-11-15T08:28:56.713Z,6.45
2022-11-15T08:31:47.127Z,4.95
2022-11-15T08:34:38.727Z,5.32
2022-11-15T08:37:29.411Z,4.90
2022-11-15T08:40:20.895Z,4.90
2022-11-15T08:43:11.820Z,5.47
2022-11-15T08:46:02.226Z,5.72
2022-11-15T08:48:52.657Z,5.13
2022-11-15T08:51:43.622Z,5.47
2022-11-15T08:54:34.139Z,5.90
2022-11-15T08:57:24.805Z,5.63
2022-11-15T09:00:15.956Z,5.75
2022-11-15T09:03:08.334Z,5.95
2022-11-15T09:06:01.267Z,5.30
2022-11-15T09:08:51.970Z,5.18
2022-11-15T09:11:42.845Z,5.65
2022-11-15T09:14:33.334Z,4.97
2022-11-15T09:17:25.153Z,4.90
2022-11-15T09:20:16.323Z,5.05
2022-11-15T09:23:07.511Z,4.72
2022-11-15T09:26:02.333Z,3.75
2022-11-15T09:28:52.975Z,4.57
2022-11-15T09:31:43.787Z,3.65
2022-11-15T09:34:34.330Z,3.75
2022-11-15T09:37:24.674Z,3.90
2022-11-15T09:40:18.473Z,3.78
2022-11-15T09:43:33.832Z,3.92
2022-11-15T09:46:40.043Z,3.50
2022-11-15T09:49:19.497Z,4.10
2022-11-15T09:51:55.671Z,3.95
2022-11-15T09:54:56.723Z,3.90
2022-11-15T09:57:53.416Z,3.58
2022-11-15T10:00:46.389Z,3.63
2022-11-15T10:03:36.435Z,3.00
2022-11-15T10:06:24.282Z,3.50
2022-11-15T10:08:56.293Z,3.60
2022-11-15T10:11:38.574Z,3.20
2022-11-15T10:14:24.835Z,3.50
2022-11-15T10:17:11.713Z,3.15
2022-11-15T10:20:06.212Z,3.88
2022-11-15T10:22:48.410Z,3.63
2022-11-15T10:25:28.149Z,3.42
2022-11-15T10:28:10.923Z,2.97
2022-11-15T10:30:49.981Z,2.95
2022-11-15T10:33:40.418Z,3.37
2022-11-15T10:36:12.770Z,2.67
2022-11-15T10:38:50.799Z,3.13
2022-11-15T10:41:33.105Z,2.83
2022-11-15T10:44:08.167Z,3.00
2022-11-15T10:46:47.631Z,2.80
2022-11-15T10:49:28.868Z,3.42
2022-11-15T10:52:02.888Z,3.38
2022-11-15T10:55:00.653Z,2.95
2022-11-15T10:57:37.581Z,2.85
2022-11-15T11:00:21.579Z,2.90
2022-11-15T11:02:56.357Z,2.63
2022-11-15T11:05:39.893Z,2.72
2022-11-15T11:08:17.319Z,3.25
2022-11-15T11:11:03.244Z,3.10
2022-11-15T11:13:39.904Z,2.95
2022-11-15T11:16:15.017Z,3.20
2022-11-15T11:18:58.754Z,2.90
2022-11-15T11:22:26.560Z,3.45
2022-11-15T11:25:14.550Z,3.00
2022-11-15T11:28:24.287Z,3.15
2022-11-15T11:31:29.563Z,3.03
2022-11-15T11:34:16.996Z,3.03
2022-11-15T11:37:03.783Z,4.00
2022-11-15T11:39:46.199Z,3.25
2022-11-15T11:42:42.301Z,3.65
2022-11-15T11:45:24.079Z,3.40
2022-11-15T11:48:08.160Z,3.80
2022-11-15T11:50:42.187Z,4.10
2022-11-15T11:53:29.987Z,3.47
2022-11-15T11:56:39.289Z,3.83
2022-11-15T11:59:29.859Z,2.47
2022-11-15T12:02:19.300Z,3.15
2022-11-15T12:04:57.917Z,2.30
2022-11-15T12:07:34.073Z,2.58
2022-11-15T12:10:18.679Z,2.72
2022-11-15T12:12:55.432Z,2.97
2022-11-15T12:15:33.250Z,3.03
2022-11-15T12:18:05.790Z,2.83
2022-11-15T12:20:51.213Z,2.58
2022-11-15T12:23:33.931Z,3.00
2022-11-15T12:26:15.733Z,2.97
2022-11-15T12:29:06.981Z,3.08
2022-11-15T12:31:47.081Z,2.85
2022-11-15T12:34:22.318Z,2.90
2022-11-15T12:36:54.976Z,3.30
2022-11-15T12:40:04.571Z,3.05
2022-11-15T12:42:43.651Z,2.67
2022-11-15T12:45:28.760Z,2.45
2022-11-15T12:48:19.347Z,2.80
2022-11-15T12:50:56.182Z,2.75
2022-11-15T12:53:34.305Z,2.70
2022-11-15T12:56:18.327Z,2.45
2022-11-15T12:58:59.222Z,4.00
2022-11-15T13:01:35.190Z,2.67
2022-11-15T13:04:25.289Z,2.45
2022-11-15T13:07:04.581Z,2.90
2022-11-15T13:09:36.661Z,2.80
2022-11-15T13:12:14.590Z,2.20
2022-11-15T13:14:48.702Z,2.83
2022-11-15T13:17:20.858Z,3.08
2022-11-15T13:20:17.942Z,2.70
2022-11-15T13:22:59.309Z,3.80
2022-11-15T13:25:37.275Z,2.70
2022-11-15T13:28:15.335Z,2.92
2022-11-15T13:30:55.544Z,2.78
2022-11-15T13:33:40.206Z,2.67
2022-11-15T13:36:22.587Z,2.85
2022-11-15T13:39:24.481Z,3.13
2022-11-15T13:41:56.683Z,3.15
2022-11-15T13:44:32.756Z,3.25
2022-11-15T13:47:06.609Z,2.80
2022-11-15T13:49:39.594Z,4.10
2022-11-15T13:52:17.512Z,3.00
2022-11-15T13:55:24.458Z,3.00
2022-11-15T13:57:59.961Z,2.83
2022-11-15T14:00:44.766Z,3.08
2022-11-15T14:03:20.877Z,3.20
2022-11-15T14:06:14.255Z,3.63
2022-11-15T14:09:04.302Z,3.60
2022-11-15T14:11:37.108Z,3.17
2022-11-15T14:14:09.139Z,3.63
2022-11-15T14:16:44.429Z,2.97
2022-11-15T14:19:22.752Z,3.05
2022-11-15T14:22:18.565Z,4.20
2022-11-15T14:25:20.401Z,3.30
2022-11-15T14:28:17.688Z,5.10
2022-11-15T14:30:52.650Z,4.50
2022-11-15T14:33:35.050Z,4.43
2022-11-15T14:36:20.464Z,3.80
2022-11-15T14:38:52.622Z,4.03
2022-11-15T14:41:27.599Z,4.00
2022-11-15T14:43:59.604Z,3.72
2022-11-15T14:46:31.957Z,3.58
2022-11-15T14:49:03.976Z,4.20
2022-11-15T14:51:36.574Z,3.90
2022-11-15T14:54:11.588Z,3.80
2022-11-15T14:56:43.956Z,3.53
2022-11-15T14:59:16.009Z,3.33
2022-11-15T15:01:48.058Z,3.17
2022-11-15T15:04:20.393Z,2.95
2022-11-15T15:06:52.878Z,3.65
2022-11-15T15:09:24.969Z,3.38
2022-11-15T15:11:59.741Z,3.42
2022-11-15T15:14:34.059Z,3.00
2022-11-15T15:17:06.148Z,3.67
2022-11-15T15:19:38.678Z,3.55
2022-11-15T15:22:19.935Z,3.78
2022-11-15T15:24:52.164Z,6.40
2022-11-15T15:27:24.290Z,3.70
2022-11-15T15:29:56.295Z,3.65
2022-11-15T15:32:28.248Z,3.70
2022-11-15T15:35:00.401Z,3.63
2022-11-15T15:37:35.063Z,3.95
2022-11-15T15:40:19.299Z,4.88
2022-11-15T15:42:51.513Z,4.43
2022-11-15T15:45:23.519Z,4.88
2022-11-15T15:47:55.847Z,4.22
2022-11-15T15:50:34.377Z,5.72
2022-11-15T15:53:06.672Z,5.80
2022-11-15T15:55:38.721Z,9.18
2022-11-15T15:58:11.054Z,9.32
2022-11-15T16:00:43.143Z,8.50
2022-11-15T16:03:15.259Z,8.77
2022-11-15T16:05:47.736Z,10.45
2022-11-15T16:08:22.182Z,17.15
2022-11-15T16:10:54.354Z,12.48
2022-11-15T16:13:26.762Z,17.02
2022-11-15T16:15:58.703Z,16.40
2022-11-15T16:18:31.419Z,16.75
2022-11-15T16:21:03.676Z,16.57
2022-11-15T16:23:35.892Z,13.73
2022-11-15T16:26:21.068Z,13.68
2022-11-15T16:28:53.391Z,14.48
2022-11-15T16:31:25.364Z,14.02
2022-11-15T16:33:57.612Z,13.27
2022-11-15T16:36:33.255Z,14.32
2022-11-15T16:39:05.537Z,14.38
2022-11-15T16:41:37.541Z,14.40
2022-11-15T16:44:09.521Z,12.60
2022-11-15T16:46:49.429Z,13.80
2022-11-15T16:49:21.968Z,12.90
2022-11-15T16:51:54.122Z,13.52
2022-11-15T16:54:26.101Z,12.57
2022-11-15T16:56:58.054Z,13.63
2022-11-15T16:59:37.070Z,12.88
2022-11-15T17:02:13.556Z,19.52
2022-11-15T17:04:46.651Z,18.90
2022-11-15T17:07:18.804Z,16.90
2022-11-15T17:09:50.934Z,16.00
2022-11-15T17:12:22.965Z,15.88
2022-11-15T17:14:55.025Z,17.08
2022-11-15T17:17:27.089Z,16.85
2022-11-15T17:19:59.125Z,16.48
2022-11-15T17:22:31.774Z,14.82
2022-11-15T17:25:04.567Z,14.93
2022-11-15T17:27:36.922Z,13.05
2022-11-15T17:30:12.145Z,12.18
2022-11-15T17:32:44.431Z,12.93
2022-11-15T17:35:18.273Z,16.88
2022-11-15T17:40:22.289Z,48.30
2022-11-15T17:42:55.525Z,41.75
2022-11-15T17:45:27.501Z,38.13
2022-11-15T17:47:59.458Z,39.55
2022-11-15T17:50:31.598Z,33.00
2022-11-15T17:53:03.609Z,28.60
2022-11-15T17:55:35.972Z,47.15
2022-11-15T17:58:08.479Z,38.40
2022-11-15T18:00:40.600Z,37.53
2022-11-15T18:03:13.273Z,31.83
2022-11-15T18:05:45.562Z,33.28
2022-11-15T18:08:17.529Z,30.40
2022-11-15T18:10:49.486Z,23.85
2022-11-15T18:13:21.651Z,19.17
2022-11-15T18:15:56.683Z,18.90
2022-11-15T18:18:30.123Z,18.85
2022-11-15T18:21:12.530Z,18.13
2022-11-15T18:23:45.183Z,19.70
2022-11-15T18:26:20.122Z,17.27
2022-11-15T18:29:02.198Z,16.55
2022-11-15T18:31:34.206Z,17.67
2022-11-15T18:34:06.386Z,16.02
2022-11-15T18:36:39.605Z,16.67
2022-11-15T18:39:16.451Z,16.50
2022-11-15T18:41:48.946Z,15.70
2022-11-15T18:44:20.998Z,15.13
2022-11-15T18:46:52.975Z,17.08
2022-11-15T18:49:25.028Z,16.38
2022-11-15T18:51:57.143Z,16.17
2022-11-15T18:54:31.277Z,15.80
2022-11-15T18:57:04.041Z,15.60
2022-11-15T18:59:36.147Z,15.27
2022-11-15T19:02:12.913Z,14.70
2022-11-15T19:04:44.936Z,13.32
2022-11-15T19:07:17.029Z,13.95
2022-11-15T19:09:49.016Z,14.93
2022-11-15T19:12:21.011Z,17.63
2022-11-15T19:14:53.018Z,18.75
2022-11-15T19:17:25.008Z,18.98
2022-11-15T19:19:57.198Z,19.05
2022-11-15T19:22:29.165Z,17.35
2022-11-15T19:25:01.174Z,16.98
2022-11-15T19:27:38.008Z,17.52
2022-11-15T19:30:10.794Z,16.98
2022-11-15T19:32:42.820Z,17.48
2022-11-15T19:35:14.953Z,14.52
2022-11-15T19:37:46.989Z,12.93
2022-11-15T19:40:18.967Z,13.68
2022-11-15T19:42:51.071Z,13.30
2022-11-15T19:45:23.103Z,13.10
2022-11-15T19:47:55.128Z,12.93
2022-11-15T19:50:27.089Z,13.80
2022-11-15T19:52:59.099Z,11.73
2022-11-15T19:55:31.050Z,12.18
2022-11-15T19:58:03.039Z,12.52
2022-11-15T20:00:35.184Z,12.95
2022-11-15T20:03:07.410Z,15.43
2022-11-15T20:05:39.374Z,16.75
2022-11-15T20:08:11.408Z,18.20
2022-11-15T20:10:45.980Z,15.25
2022-11-15T20:13:18.011Z,15.55
2022-11-15T20:15:50.127Z,15.05
2022-11-15T20:18:24.666Z,14.35
2022-11-15T20:20:58.565Z,13.23
2022-11-15T20:23:30.889Z,13.75
2022-11-15T20:26:02.953Z,14.93
2022-11-15T20:28:37.322Z,16.42
2022-11-15T20:31:10.462Z,15.15
2022-11-15T20:33:42.652Z,14.80
2022-11-15T20:36:16.064Z,14.75
2022-11-15T20:38:48.079Z,14.45
2022-11-15T20:41:20.055Z,13.48
2022-11-15T20:43:52.546Z,13.95
2022-11-15T20:46:24.714Z,15.60
2022-11-15T20:48:56.883Z,14.13
2022-11-15T20:51:28.960Z,13.45
2022-11-15T20:54:01.518Z,14.27
2022-11-15T20:56:33.516Z,14.77
2022-11-15T20:59:05.660Z,15.00
2022-11-15T21:01:37.863Z,14.30
2022-11-15T21:04:09.937Z,13.95
2022-11-15T21:06:47.495Z,14.57
2022-11-15T21:09:39.469Z,13.70
2022-11-15T21:12:13.543Z,15.77
2022-11-15T21:14:46.614Z,14.60
2022-11-15T21:17:18.900Z,12.75
2022-11-15T21:19:50.938Z,11.65
2022-11-15T21:22:23.184Z,11.68
2022-11-15T21:24:58.966Z,10.35
2022-11-15T21:27:31.516Z,11.05
2022-11-15T21:30:04.456Z,11.60
2022-11-15T21:32:37.636Z,11.63
2022-11-15T21:35:09.885Z,11.63
2022-11-15T21:37:41.960Z,11.02
2022-11-15T21:40:13.979Z,10.93
2022-11-15T21:42:45.939Z,11.57
2022-11-15T21:45:17.916Z,10.82
2022-11-15T21:47:49.909Z,12.40
2022-11-15T21:50:22.034Z,11.05
2022-11-15T21:52:54.028Z,10.98
2022-11-15T21:55:26.226Z,11.63
2022-11-15T21:57:58.271Z,11.23
2022-11-15T22:00:48.840Z,11.60
2022-11-15T22:03:20.872Z,10.90
2022-11-15T22:05:53.083Z,10.68
2022-11-15T22:08:25.543Z,10.60
2022-11-15T22:10:58.009Z,9.95
2022-11-15T22:13:30.182Z,10.05
2022-11-15T22:16:02.786Z,10.30
2022-11-15T22:18:35.118Z,10.70
2022-11-15T22:21:11.150Z,9.73
2022-11-15T22:23:44.692Z,10.00
2022-11-15T22:26:23.238Z,10.23
2022-11-15T22:28:55.914Z,11.20
2022-11-15T22:31:28.037Z,11.75
2022-11-15T22:34:00.058Z,10.27
2022-11-15T22:36:46.942Z,9.70
2022-11-15T22:39:24.070Z,9.90
2022-11-15T22:41:56.062Z,9.57
2022-11-15T22:44:28.038Z,10.15
2022-11-15T22:47:00.226Z,10.35
2022-11-15T22:49:32.239Z,9.95
2022-11-15T22:52:04.496Z,11.90
2022-11-15T22:54:36.898Z,11.20
2022-11-15T22:57:09.125Z,10.80
2022-11-15T22:59:42.506Z,10.18
2022-11-15T23:02:14.664Z,9.80
2022-11-15T23:04:46.660Z,11.30
2022-11-15T23:07:18.667Z,12.00
2022-11-15T23:09:52.339Z,10.40
2022-11-15T23:12:43.012Z,10.88
2022-11-15T23:15:15.071Z,11.07
2022-11-15T23:17:47.070Z,10.40
2022-11-15T23:20:41.826Z,12.40
2022-11-15T23:23:12.226Z,11.80
2022-11-15T23:25:44.215Z,11.00
2022-11-15T23:28:16.453Z,11.10
2022-11-15T23:31:06.865Z,12.80
2022-11-15T23:33:57.485Z,11.90
2022-11-15T23:36:30.017Z,12.15
2022-11-15T23:39:03.213Z,10.98
2022-11-15T23:41:35.420Z,10.82
2022-11-15T23:44:07.728Z,11.32
2022-11-15T23:46:39.885Z,10.98
2022-11-15T23:49:11.903Z,11.60
2022-11-15T23:51:45.328Z,11.45
2022-11-15T23:54:17.435Z,12.05
2022-11-15T23:56:49.387Z,11.25
2022-11-15T23:59:21.703Z,11.73
